createdAt,value
2017-09-28T00:00:56.316Z,16.50
2017-09-28T00:03:24.569Z,16.40
2017-09-28T00:05:52.859Z,16.40
2017-09-28T00:08:21.260Z,16.30
2017-09-28T00:10:49.293Z,16.30
2017-09-28T00:13:17.604Z,16.20
2017-09-28T00:15:46.011Z,16.10
2017-09-28T00:18:14.052Z,16.10
2017-09-28T00:20:42.312Z,16.10
2017-09-28T00:23:10.714Z,16.20
2017-09-28T00:25:40.102Z,16.30
2017-09-28T00:28:08.558Z,16.30
2017-09-28T00:30:37.144Z,16.20
2017-09-28T00:33:05.611Z,16.20
2017-09-28T00:35:34.023Z,16.00
2017-09-28T00:38:02.307Z,15.90
2017-09-28T00:40:30.636Z,15.70
2017-09-28T00:42:59.156Z,15.60
2017-09-28T00:45:27.795Z,15.60
2017-09-28T00:47:56.154Z,15.70
2017-09-28T00:50:25.314Z,15.90
2017-09-28T00:52:53.994Z,15.80
2017-09-28T00:55:22.597Z,15.90
2017-09-28T00:57:51.760Z,15.80
2017-09-28T01:00:20.192Z,15.80
2017-09-28T01:02:49.375Z,15.80
2017-09-28T01:05:18.061Z,15.70
2017-09-28T01:07:47.041Z,15.80
2017-09-28T01:10:15.511Z,15.80
2017-09-28T01:12:43.688Z,15.80
2017-09-28T01:15:12.154Z,15.80
2017-09-28T01:17:40.229Z,15.80
2017-09-28T01:20:08.515Z,15.80
2017-09-28T01:22:36.922Z,15.80
2017-09-28T01:25:05.983Z,15.70
2017-09-28T01:27:34.335Z,15.70
2017-09-28T01:30:02.415Z,15.70
2017-09-28T01:32:30.725Z,15.80
2017-09-28T01:34:59.763Z,15.80
2017-09-28T01:37:28.068Z,15.80
2017-09-28T01:39:56.480Z,15.80
2017-09-28T01:42:25.660Z,15.80
2017-09-28T01:44:54.126Z,15.80
2017-09-28T01:47:22.619Z,15.80
2017-09-28T01:49:50.954Z,15.70
2017-09-28T01:52:19.367Z,15.60
2017-09-28T01:54:47.487Z,15.60
2017-09-28T01:57:15.848Z,15.60
2017-09-28T01:59:45.060Z,15.60
2017-09-28T02:02:13.268Z,15.60
2017-09-28T02:04:41.547Z,15.60
2017-09-28T02:07:09.867Z,15.60
2017-09-28T02:09:38.846Z,15.50
2017-09-28T02:12:07.067Z,15.50
2017-09-28T02:14:35.288Z,15.50
2017-09-28T02:17:03.551Z,15.50
2017-09-28T02:19:31.747Z,15.50
2017-09-28T02:22:01.667Z,15.50
2017-09-28T02:24:30.947Z,15.50
2017-09-28T02:26:59.226Z,15.50
2017-09-28T02:29:28.120Z,15.40
2017-09-28T02:31:56.288Z,15.40
2017-09-28T02:34:24.596Z,15.40
2017-09-28T02:36:52.807Z,15.40
2017-09-28T02:39:21.108Z,15.40
2017-09-28T02:41:49.587Z,15.40
2017-09-28T02:44:17.947Z,15.40
2017-09-28T02:46:46.468Z,15.50
2017-09-28T02:49:15.848Z,15.50
2017-09-28T02:51:44.354Z,15.50
2017-09-28T02:54:13.607Z,15.50
2017-09-28T02:56:41.908Z,15.50
2017-09-28T02:59:11.130Z,15.40
2017-09-28T03:01:40.418Z,15.50
2017-09-28T03:04:09.698Z,15.50
2017-09-28T03:06:37.958Z,15.40
2017-09-28T03:09:06.362Z,15.40
2017-09-28T03:11:34.768Z,15.40
2017-09-28T03:14:03.728Z,15.40
2017-09-28T03:16:32.105Z,15.30
2017-09-28T03:19:01.127Z,15.30
2017-09-28T03:21:30.093Z,15.20
2017-09-28T03:23:58.278Z,15.20
2017-09-28T03:26:27.369Z,15.20
2017-09-28T03:28:55.619Z,15.20
2017-09-28T03:31:23.899Z,15.10
2017-09-28T03:33:52.179Z,15.10
2017-09-28T03:36:20.280Z,15.10
2017-09-28T03:38:49.459Z,15.10
2017-09-28T03:41:17.720Z,15.10
2017-09-28T03:43:45.906Z,15.10
2017-09-28T03:46:14.287Z,15.10
2017-09-28T03:48:42.632Z,15.00
2017-09-28T03:51:10.939Z,15.10
2017-09-28T03:53:40.286Z,15.20
2017-09-28T03:56:08.695Z,15.20
2017-09-28T03:58:37.096Z,15.10
2017-09-28T04:01:05.171Z,15.10
2017-09-28T04:03:33.752Z,15.20
2017-09-28T04:06:01.998Z,15.10
2017-09-28T04:08:30.492Z,15.10
2017-09-28T04:10:58.912Z,15.10
2017-09-28T04:13:27.152Z,15.20
2017-09-28T04:15:55.535Z,15.20
2017-09-28T04:18:23.812Z,15.30
2017-09-28T04:20:52.283Z,15.30
2017-09-28T04:23:20.513Z,15.30
2017-09-28T04:25:48.752Z,15.30
2017-09-28T04:28:17.972Z,15.20
2017-09-28T04:30:46.168Z,15.20
2017-09-28T04:33:14.366Z,15.20
2017-09-28T04:35:42.846Z,15.20
2017-09-28T04:38:11.131Z,15.20
2017-09-28T04:40:39.373Z,15.30
2017-09-28T04:43:07.880Z,15.30
2017-09-28T04:45:37.713Z,15.40
2017-09-28T04:48:06.292Z,15.40
2017-09-28T04:50:34.563Z,15.40
2017-09-28T04:53:02.700Z,15.40
2017-09-28T04:55:31.020Z,15.40
2017-09-28T04:58:00.216Z,15.40
2017-09-28T05:00:28.794Z,15.40
2017-09-28T05:02:57.476Z,15.30
2017-09-28T05:05:25.854Z,15.10
2017-09-28T05:07:54.350Z,15.20
2017-09-28T05:10:22.716Z,15.10
2017-09-28T05:12:51.395Z,15.20
2017-09-28T05:15:19.881Z,15.10
2017-09-28T05:17:48.248Z,15.10
2017-09-28T05:20:16.738Z,15.20
2017-09-28T05:22:45.144Z,15.20
2017-09-28T05:25:14.238Z,15.10
2017-09-28T05:27:43.418Z,15.10
2017-09-28T05:30:11.776Z,15.00
2017-09-28T05:32:39.956Z,15.10
2017-09-28T05:35:08.816Z,15.00
2017-09-28T05:37:37.340Z,15.00
2017-09-28T05:40:06.516Z,15.00
2017-09-28T05:42:34.560Z,15.00
2017-09-28T05:45:02.792Z,15.10
2017-09-28T05:47:31.953Z,15.10
2017-09-28T05:50:00.307Z,15.10
2017-09-28T05:52:28.632Z,15.10
2017-09-28T05:54:57.813Z,15.00
2017-09-28T05:57:26.251Z,15.00
2017-09-28T05:59:54.690Z,15.10
2017-09-28T06:02:23.051Z,15.10
2017-09-28T06:04:51.532Z,15.10
2017-09-28T06:07:19.691Z,15.10
2017-09-28T06:09:47.932Z,15.10
2017-09-28T06:12:16.491Z,15.10
2017-09-28T06:14:45.341Z,15.10
2017-09-28T06:17:13.761Z,15.10
2017-09-28T06:19:42.195Z,15.10
2017-09-28T06:22:10.489Z,15.10
2017-09-28T06:24:39.607Z,15.20
2017-09-28T06:27:08.987Z,15.20
2017-09-28T06:29:37.354Z,15.20
2017-09-28T06:32:05.626Z,15.30
2017-09-28T06:34:33.696Z,15.30
2017-09-28T06:37:01.954Z,15.40
2017-09-28T06:39:30.251Z,15.40
2017-09-28T06:41:58.435Z,15.50
2017-09-28T06:44:26.732Z,15.50
2017-09-28T06:46:54.985Z,15.50
2017-09-28T06:49:23.430Z,15.60
2017-09-28T06:51:51.735Z,15.70
2017-09-28T06:54:20.858Z,15.70
2017-09-28T06:56:50.108Z,15.90
2017-09-28T06:59:18.514Z,15.80
2017-09-28T07:01:47.469Z,16.00
2017-09-28T07:04:15.704Z,16.00
2017-09-28T07:06:43.750Z,16.00
2017-09-28T07:09:12.701Z,16.20
2017-09-28T07:11:40.920Z,16.20
2017-09-28T07:14:10.054Z,16.40
2017-09-28T07:16:38.167Z,16.40
2017-09-28T07:19:06.310Z,16.50
2017-09-28T07:21:34.512Z,16.50
2017-09-28T07:24:02.558Z,16.50
2017-09-28T07:26:30.736Z,16.40
2017-09-28T07:28:59.039Z,16.20
2017-09-28T07:31:27.430Z,16.30
2017-09-28T07:33:56.838Z,16.50
2017-09-28T07:36:25.811Z,16.60
2017-09-28T07:38:54.909Z,16.70
2017-09-28T07:41:23.292Z,16.60
2017-09-28T07:43:52.487Z,16.90
2017-09-28T07:46:20.970Z,16.80
2017-09-28T07:48:49.232Z,17.00
2017-09-28T07:51:17.633Z,17.10
2017-09-28T07:53:46.604Z,17.30
2017-09-28T07:56:14.892Z,17.30
2017-09-28T07:58:43.381Z,17.30
2017-09-28T08:01:12.331Z,17.50
2017-09-28T08:03:40.508Z,17.50
2017-09-28T08:06:09.104Z,17.60
2017-09-28T08:08:37.480Z,17.70
2017-09-28T08:11:06.108Z,17.70
2017-09-28T08:13:35.380Z,17.90
2017-09-28T08:16:03.655Z,17.80
2017-09-28T08:18:32.861Z,18.10
2017-09-28T08:21:01.858Z,18.20
2017-09-28T08:23:30.829Z,18.20
2017-09-28T08:25:59.351Z,18.20
2017-09-28T08:28:27.655Z,18.20
2017-09-28T08:30:56.055Z,18.20
2017-09-28T08:33:24.346Z,18.30
2017-09-28T08:35:53.538Z,18.40
2017-09-28T08:38:22.137Z,18.30
2017-09-28T08:40:52.005Z,18.50
2017-09-28T08:43:20.428Z,18.50
2017-09-28T08:45:49.402Z,18.70
2017-09-28T08:48:17.667Z,18.70
2017-09-28T08:50:46.068Z,18.70
2017-09-28T08:53:14.526Z,18.80
2017-09-28T08:55:43.119Z,18.90
2017-09-28T08:58:12.113Z,18.90
2017-09-28T09:00:40.499Z,18.90
2017-09-28T09:03:08.860Z,19.00
2017-09-28T09:05:37.160Z,19.10
2017-09-28T09:08:06.252Z,19.30
2017-09-28T09:10:35.257Z,19.30
2017-09-28T09:13:04.535Z,19.30
2017-09-28T09:15:33.316Z,19.30
2017-09-28T09:18:03.118Z,19.30
2017-09-28T09:20:31.609Z,19.30
2017-09-28T09:23:00.110Z,19.40
2017-09-28T09:25:28.970Z,19.50
2017-09-28T09:27:57.256Z,19.50
2017-09-28T09:30:26.327Z,19.60
2017-09-28T09:32:54.406Z,19.60
2017-09-28T09:35:22.915Z,19.70
2017-09-28T09:37:52.188Z,20.10
2017-09-28T09:40:20.571Z,20.00
2017-09-28T09:42:48.951Z,20.20
2017-09-28T09:45:17.189Z,20.20
2017-09-28T09:47:45.311Z,20.30
2017-09-28T09:50:14.599Z,20.20
2017-09-28T09:52:43.093Z,20.10
2017-09-28T09:55:12.388Z,19.90
2017-09-28T09:57:40.549Z,19.80
2017-09-28T10:00:08.876Z,19.90
2017-09-28T10:02:37.211Z,19.90
2017-09-28T10:05:06.300Z,19.90
2017-09-28T10:07:37.609Z,19.90
2017-09-28T10:10:10.034Z,20.00
2017-09-28T10:12:42.902Z,20.00
2017-09-28T10:15:16.537Z,20.00
2017-09-28T10:17:45.967Z,19.80
2017-09-28T10:20:14.527Z,19.80
2017-09-28T10:22:43.082Z,19.80
2017-09-28T10:25:11.560Z,19.70
2017-09-28T10:27:39.930Z,19.70
2017-09-28T10:30:08.206Z,19.80
2017-09-28T10:32:36.777Z,19.80
2017-09-28T10:35:05.371Z,19.80
2017-09-28T10:37:34.591Z,20.00
2017-09-28T10:40:03.742Z,20.10
2017-09-28T10:42:32.036Z,20.10
2017-09-28T10:45:00.215Z,20.10
2017-09-28T10:47:28.752Z,19.90
2017-09-28T10:49:57.286Z,20.20
2017-09-28T10:52:26.268Z,20.10
2017-09-28T10:54:54.562Z,20.10
2017-09-28T10:57:22.941Z,20.00
2017-09-28T10:59:51.921Z,20.10
2017-09-28T11:02:21.577Z,20.20
2017-09-28T11:04:49.793Z,20.10
2017-09-28T11:07:18.054Z,20.20
2017-09-28T11:09:46.372Z,20.40
2017-09-28T11:12:15.362Z,20.60
2017-09-28T11:14:44.951Z,20.70
2017-09-28T11:17:13.569Z,20.70
2017-09-28T11:19:42.921Z,20.90
2017-09-28T11:22:11.446Z,20.90
2017-09-28T11:24:40.002Z,21.10
2017-09-28T11:27:08.169Z,21.00
2017-09-28T11:29:36.827Z,21.00
2017-09-28T11:32:05.229Z,21.00
2017-09-28T11:34:33.515Z,20.70
2017-09-28T11:37:02.346Z,20.50
2017-09-28T11:39:30.678Z,20.50
2017-09-28T11:42:00.583Z,20.30
2017-09-28T11:44:29.116Z,20.30
2017-09-28T11:46:57.238Z,20.40
2017-09-28T11:49:25.615Z,20.50
2017-09-28T11:51:53.990Z,20.60
2017-09-28T11:54:22.274Z,20.70
2017-09-28T11:56:50.431Z,20.80
2017-09-28T11:59:18.477Z,20.80
2017-09-28T12:01:46.581Z,20.80
2017-09-28T12:04:14.854Z,20.70
2017-09-28T12:06:43.736Z,20.80
2017-09-28T12:09:11.828Z,20.90
2017-09-28T12:11:40.919Z,20.80
2017-09-28T12:14:10.613Z,20.70
2017-09-28T12:16:39.004Z,20.70
2017-09-28T12:19:07.378Z,20.60
2017-09-28T12:21:35.859Z,20.40
2017-09-28T12:24:04.226Z,20.40
2017-09-28T12:26:32.615Z,20.60
2017-09-28T12:29:00.990Z,20.60
2017-09-28T12:31:29.478Z,20.70
2017-09-28T12:33:58.566Z,20.90
2017-09-28T12:36:26.856Z,20.80
2017-09-28T12:38:55.247Z,20.90
2017-09-28T12:41:24.222Z,21.10
2017-09-28T12:43:52.842Z,21.10
2017-09-28T12:46:21.285Z,21.20
2017-09-28T12:48:49.548Z,21.30
2017-09-28T12:51:17.729Z,21.20
2017-09-28T12:53:45.788Z,21.10
2017-09-28T12:56:14.192Z,21.10
2017-09-28T12:58:43.478Z,20.90
2017-09-28T13:01:11.846Z,20.80
2017-09-28T13:03:40.415Z,20.80
2017-09-28T13:06:08.714Z,20.90
2017-09-28T13:08:37.936Z,21.10
2017-09-28T13:11:07.022Z,21.10
2017-09-28T13:13:36.099Z,21.10
2017-09-28T13:16:05.230Z,21.20
2017-09-28T13:18:34.351Z,21.30
2017-09-28T13:21:02.678Z,21.30
2017-09-28T13:23:31.789Z,21.20
2017-09-28T13:26:00.955Z,21.10
2017-09-28T13:28:30.251Z,21.10
2017-09-28T13:30:58.531Z,21.10
2017-09-28T13:33:26.874Z,21.10
2017-09-28T13:35:55.300Z,21.30
2017-09-28T13:38:23.569Z,21.30
2017-09-28T13:40:53.368Z,21.40
2017-09-28T13:43:21.676Z,21.40
2017-09-28T13:45:50.655Z,21.70
2017-09-28T13:48:18.813Z,21.70
2017-09-28T13:50:47.304Z,21.70
2017-09-28T13:53:15.667Z,21.70
2017-09-28T13:55:44.073Z,21.60
2017-09-28T13:58:13.192Z,21.30
2017-09-28T14:00:41.538Z,21.30
2017-09-28T14:03:10.520Z,21.20
2017-09-28T14:05:39.423Z,21.00
2017-09-28T14:08:08.419Z,21.00
2017-09-28T14:10:37.493Z,20.80
2017-09-28T14:13:05.761Z,20.90
2017-09-28T14:15:33.843Z,20.80
2017-09-28T14:18:03.772Z,20.90
2017-09-28T14:20:32.249Z,20.90
2017-09-28T14:23:01.455Z,20.90
2017-09-28T14:25:30.436Z,21.00
2017-09-28T14:27:59.415Z,20.80
2017-09-28T14:30:28.699Z,20.80
2017-09-28T14:32:57.117Z,20.80
2017-09-28T14:35:27.321Z,20.70
2017-09-28T14:37:55.707Z,20.70
2017-09-28T14:40:24.116Z,20.80
2017-09-28T14:42:52.349Z,20.80
2017-09-28T14:45:21.698Z,20.80
2017-09-28T14:47:49.812Z,20.80
2017-09-28T14:50:18.192Z,20.90
2017-09-28T14:52:46.594Z,20.90
2017-09-28T14:55:15.782Z,20.90
2017-09-28T14:57:44.041Z,20.90
2017-09-28T15:00:12.548Z,20.90
2017-09-28T15:02:41.535Z,21.00
2017-09-28T15:05:10.510Z,20.80
2017-09-28T15:07:38.798Z,20.80
2017-09-28T15:10:08.899Z,20.80
2017-09-28T15:12:37.084Z,20.80
2017-09-28T15:15:05.336Z,20.90
2017-09-28T15:17:33.644Z,20.90
2017-09-28T15:20:02.629Z,21.10
2017-09-28T15:22:31.622Z,21.10
2017-09-28T15:25:01.756Z,21.10
2017-09-28T15:27:31.001Z,21.10
2017-09-28T15:29:59.313Z,21.10
2017-09-28T15:32:27.806Z,21.10
2017-09-28T15:34:55.962Z,21.10
2017-09-28T15:37:24.230Z,21.10
2017-09-28T15:39:52.926Z,21.10
2017-09-28T15:42:22.619Z,21.00
2017-09-28T15:44:51.121Z,21.00
2017-09-28T15:47:20.220Z,21.00
2017-09-28T15:49:48.503Z,20.90
2017-09-28T15:52:17.475Z,20.90
2017-09-28T15:54:45.946Z,20.90
2017-09-28T15:57:14.245Z,20.90
2017-09-28T15:59:43.265Z,20.80
2017-09-28T16:02:11.476Z,20.80
2017-09-28T16:04:39.888Z,20.80
2017-09-28T16:07:08.874Z,20.70
2017-09-28T16:09:37.226Z,20.70
2017-09-28T16:12:05.926Z,20.70
2017-09-28T16:14:34.099Z,20.70
2017-09-28T16:17:02.311Z,20.80
2017-09-28T16:19:31.431Z,20.70
2017-09-28T16:21:59.883Z,20.70
2017-09-28T16:24:29.058Z,20.70
2017-09-28T16:26:59.100Z,20.70
2017-09-28T16:29:28.389Z,20.60
2017-09-28T16:31:57.579Z,20.60
2017-09-28T16:34:26.756Z,20.50
2017-09-28T16:36:54.948Z,20.50
2017-09-28T16:39:23.219Z,20.50
2017-09-28T16:41:53.029Z,20.30
2017-09-28T16:44:21.297Z,20.40
2017-09-28T16:46:49.985Z,20.30
2017-09-28T16:49:18.254Z,20.30
2017-09-28T16:51:46.658Z,20.20
2017-09-28T16:54:15.738Z,20.10
2017-09-28T16:56:44.799Z,20.00
2017-09-28T16:59:13.002Z,20.00
2017-09-28T17:01:42.305Z,20.00
2017-09-28T17:04:10.572Z,20.00
2017-09-28T17:06:39.587Z,19.90
2017-09-28T17:09:08.775Z,19.80
2017-09-28T17:11:37.000Z,19.80
2017-09-28T17:14:05.296Z,19.70
2017-09-28T17:16:33.617Z,19.70
2017-09-28T17:19:02.514Z,19.70
2017-09-28T17:21:31.781Z,19.60
2017-09-28T17:24:00.274Z,19.60
2017-09-28T17:26:28.834Z,19.60
2017-09-28T17:28:57.219Z,19.60
2017-09-28T17:31:27.161Z,19.50
2017-09-28T17:33:56.222Z,19.50
2017-09-28T17:36:24.605Z,19.50
2017-09-28T17:38:52.979Z,19.50
2017-09-28T17:41:21.680Z,19.40
2017-09-28T17:43:50.875Z,19.30
2017-09-28T17:46:19.875Z,19.30
2017-09-28T17:48:48.970Z,19.20
2017-09-28T17:51:18.373Z,19.20
2017-09-28T17:53:47.798Z,19.10
2017-09-28T17:56:16.106Z,19.10
2017-09-28T17:58:44.508Z,19.20
2017-09-28T18:01:12.869Z,19.10
2017-09-28T18:03:41.416Z,19.10
2017-09-28T18:06:09.856Z,19.10
2017-09-28T18:08:39.917Z,19.10
2017-09-28T18:11:08.391Z,19.10
2017-09-28T18:13:36.839Z,19.10
2017-09-28T18:16:05.218Z,19.00
2017-09-28T18:18:33.705Z,19.00
2017-09-28T18:21:01.925Z,18.90
2017-09-28T18:23:30.317Z,18.90
2017-09-28T18:25:58.762Z,18.80
2017-09-28T18:28:27.227Z,18.80
2017-09-28T18:30:56.411Z,18.60
2017-09-28T18:33:26.324Z,18.60
2017-09-28T18:35:54.467Z,18.60
2017-09-28T18:38:22.673Z,18.50
2017-09-28T18:40:51.656Z,18.60
2017-09-28T18:43:20.239Z,18.60
2017-09-28T18:45:48.621Z,18.60
2017-09-28T18:48:17.412Z,18.60
2017-09-28T18:50:46.511Z,18.60
2017-09-28T18:53:15.688Z,18.60
2017-09-28T18:55:44.814Z,18.60
2017-09-28T18:58:13.974Z,18.60
2017-09-28T19:00:42.233Z,18.60
2017-09-28T19:03:10.551Z,18.60
2017-09-28T19:05:39.657Z,18.40
2017-09-28T19:08:09.128Z,18.30
2017-09-28T19:10:37.343Z,18.20
2017-09-28T19:13:05.861Z,18.20
2017-09-28T19:15:34.059Z,18.10
2017-09-28T19:18:02.531Z,18.10
2017-09-28T19:20:30.911Z,18.10
2017-09-28T19:22:59.095Z,18.00
2017-09-28T19:25:27.554Z,17.90
2017-09-28T19:27:56.045Z,17.80
2017-09-28T19:30:24.347Z,17.90
2017-09-28T19:32:53.569Z,17.80
2017-09-28T19:35:22.031Z,17.80
2017-09-28T19:37:51.149Z,17.70
2017-09-28T19:40:19.467Z,17.70
2017-09-28T19:42:48.202Z,17.60
2017-09-28T19:45:16.341Z,17.50
2017-09-28T19:47:44.489Z,17.50
2017-09-28T19:50:12.749Z,17.50
2017-09-28T19:52:41.270Z,17.50
2017-09-28T19:55:10.978Z,17.60
2017-09-28T19:57:39.350Z,17.60
2017-09-28T20:00:08.546Z,17.60
2017-09-28T20:02:37.967Z,17.60
2017-09-28T20:05:07.143Z,17.60
2017-09-28T20:07:35.530Z,17.60
2017-09-28T20:10:05.369Z,17.60
2017-09-28T20:12:34.796Z,17.60
2017-09-28T20:15:03.113Z,17.60
2017-09-28T20:17:31.452Z,17.60
2017-09-28T20:19:59.873Z,17.60
2017-09-28T20:22:28.469Z,17.60
2017-09-28T20:24:56.971Z,17.60
2017-09-28T20:27:26.230Z,17.60
2017-09-28T20:29:54.597Z,17.50
2017-09-28T20:32:22.895Z,17.60
2017-09-28T20:34:51.162Z,17.50
2017-09-28T20:37:19.780Z,17.50
2017-09-28T20:39:48.962Z,17.50
2017-09-28T20:42:18.139Z,17.60
2017-09-28T20:44:46.407Z,17.50
2017-09-28T20:47:14.597Z,17.60
2017-09-28T20:49:42.910Z,17.60
2017-09-28T20:52:11.471Z,17.60
2017-09-28T20:54:40.636Z,17.60
2017-09-28T20:57:08.916Z,17.60
2017-09-28T20:59:37.198Z,17.60
2017-09-28T21:02:05.579Z,17.70
2017-09-28T21:04:33.874Z,17.70
2017-09-28T21:07:03.051Z,17.60
2017-09-28T21:09:32.866Z,17.60
2017-09-28T21:12:01.351Z,17.60
2017-09-28T21:14:29.600Z,17.60
2017-09-28T21:16:57.867Z,17.60
2017-09-28T21:19:26.373Z,17.60
2017-09-28T21:21:54.853Z,17.60
2017-09-28T21:24:23.454Z,17.60
2017-09-28T21:26:52.956Z,17.60
2017-09-28T21:29:22.137Z,17.60
2017-09-28T21:31:50.819Z,17.60
2017-09-28T21:34:19.001Z,17.60
2017-09-28T21:36:48.329Z,17.70
2017-09-28T21:39:17.518Z,17.70
2017-09-28T21:41:46.474Z,17.70
2017-09-28T21:44:14.668Z,17.70
2017-09-28T21:46:44.526Z,17.60
2017-09-28T21:49:12.746Z,17.60
2017-09-28T21:51:41.174Z,17.60
2017-09-28T21:54:09.612Z,17.50
2017-09-28T21:56:37.961Z,17.50
2017-09-28T21:59:06.471Z,17.40
2017-09-28T22:01:34.548Z,17.40
2017-09-28T22:04:03.453Z,17.50
2017-09-28T22:06:31.698Z,17.50
2017-09-28T22:09:00.078Z,17.60
2017-09-28T22:11:28.138Z,17.60
2017-09-28T22:13:56.332Z,17.60
2017-09-28T22:16:24.692Z,17.60
2017-09-28T22:18:53.067Z,17.70
2017-09-28T22:21:21.462Z,17.70
2017-09-28T22:23:49.910Z,17.80
2017-09-28T22:26:18.214Z,17.70
2017-09-28T22:28:46.411Z,17.70
2017-09-28T22:31:15.591Z,17.70
2017-09-28T22:33:44.780Z,17.60
2017-09-28T22:36:13.057Z,17.60
2017-09-28T22:38:42.061Z,17.60
2017-09-28T22:41:11.341Z,17.60
2017-09-28T22:43:39.815Z,17.60
2017-09-28T22:46:08.201Z,17.60
2017-09-28T22:48:36.707Z,17.50
2017-09-28T22:51:05.879Z,17.40
2017-09-28T22:53:34.472Z,17.40
2017-09-28T22:56:02.627Z,17.40
2017-09-28T22:58:31.113Z,17.30
2017-09-28T23:00:59.486Z,17.20
2017-09-28T23:03:27.710Z,17.20
2017-09-28T23:05:56.150Z,17.10
2017-09-28T23:08:24.371Z,17.20
2017-09-28T23:10:52.699Z,17.20
2017-09-28T23:13:22.752Z,17.00
2017-09-28T23:15:51.013Z,17.00
2017-09-28T23:18:20.191Z,17.00
2017-09-28T23:20:48.773Z,17.00
2017-09-28T23:23:17.272Z,17.00
2017-09-28T23:25:46.825Z,17.00
2017-09-28T23:28:15.121Z,17.00
2017-09-28T23:30:43.409Z,16.90
2017-09-28T23:33:11.568Z,17.00
2017-09-28T23:35:40.062Z,16.90
2017-09-28T23:38:08.356Z,16.90
2017-09-28T23:40:37.521Z,16.90
2017-09-28T23:43:05.701Z,16.80
2017-09-28T23:45:34.301Z,16.80
2017-09-28T23:48:02.621Z,16.80
2017-09-28T23:50:30.941Z,16.90
2017-09-28T23:52:59.334Z,16.80
2017-09-28T23:55:27.696Z,16.80
2017-09-28T23:57:56.081Z,16.80
